Gotebo, OK (73041)

3:16 PM CDT on July 23, 2014 (GMT -0500)
Hobart Municipal (KHBR) Elev 1565 ft | 34.99 °N, 99.05 °W | Change Station
Active Advisory: Heat Advisory

Current weather conditions updated 23 minutes ago

Clear
Clear
98 °F
Feels Like 102 °F
N
7
Wind Variable Wind from SE

Today is forecast to be nearly the same temperature as yesterday.

Today
High -- | Low -- °F
--% Chance of Precip.
Yesterday
High -- | Low -- °F
Precip. -- in
6:38 AM 8:45 PM
Waning Crescent, 9% visible
Pressure 30.06 in
Visibility 9.0 miles
Clouds Clear
Heat Index 102 °F
Dew Point 67 °F
Humidity 36%
Rainfall 0.00 in
Snow Depth Not available.
UV 11 out of 12
Pollen 4.80 out of 12
Air Quality Not available.
Flu Activity Not available.
METAR KHBR 231953Z AUTO 14006KT 9SM CLR 37/19 A3013 RMK AO2 SLP180 T03670194

More Conditions Fewer Conditions

Pressure 30.06 in
Visibility 9.0 miles
Clouds Clear
Heat Index 102 °F
Dew Point 67 °F
Humidity 36%
Rainfall 0.00 in
Snow Depth Not available.
UV 11 out of 12
Pollen 4.80 out of 12
Air Quality Not available.
Flu Activity Not available.
METAR KHBR 231953Z AUTO 14006KT 9SM CLR 37/19 A3013 RMK AO2 SLP180 T03670194

More Conditions Fewer Conditions

10-Day Weather Forecast

Almanac

Astronomy

Jul. 23, 2014 Rise Set
Actual Time 6:38 AM CDT 8:45 PM CDT
Civil Twilight 6:09 AM CDT 9:13 PM CDT
Nautical Twilight 5:34 AM CDT 9:48 PM CDT
Astronomical Twilight 4:57 AM CDT 10:25 PM CDT
Moon 3:57 AM CDT 6:16 PM CDT
Length of Visible Light 15h 04m
Length of Day
14h 07m
Tomorrow will be 1m 24s shorter.
Waning Crescent, 9% of the Moon is Illuminated
Today
Waning Crescent
Jul 26
New
Aug 3
First Quarter
Aug 10
Full
Aug 17
Last Quarter

Today's Extremes

State Highs State Lows

Community

WunderPhotos

Upload Photos

1,736,755 photos uploaded!

Nearby

Snow Depth

Station Depth Elevation
No new snow has been reported.

Earthquake Activity

City Distance Mag. Time & Date
Spencer, Oklahoma 90 miles 2.7 4:56 PM CDT
2014-07-18
Helena, Oklahoma 116 miles 3.2 8:41 AM CDT
2014-07-18
Guthrie, Oklahoma 103 miles 2.9 8:59 PM CDT
2014-07-17
Perry, Oklahoma 114 miles 2.8 8:37 PM CDT
2014-07-17
Minimum magnitude displayed is 2.5.

Coastal Water Temperatures

Place Temperature
No Stations Reporting

Nearby Weather Stations

Station Location Temp. Heat Index Dew Point Humidity Wind Precip. Elev Updated Type
Carnegie, Carnegie, OK 99.0 °F 98 °F 56 °F 24% ESE  at  8.3 mph 0.00 in / hr 1358 ft 3:16 PM CDT Rapid Fire
Petzold Consulting, Lone Wolf, OK 97.0 °F 102 °F 68 °F 39% NE  at  7.4 mph 0.00 in / hr 1588 ft 3:16 PM CDT Rapid Fire
RAWS WICHITA OK, Meers, OK 97 °F 102 °F 67 °F 38% ENE  at  5 mph 0.00 in / hr 1832 ft 2:29 PM CDT MADIS
APRSWXNET Fort Cobb OK , Albert, OK 96 °F 105 °F 72 °F 46% NNE  at  1 mph 0.00 in / hr 1443 ft 2:49 PM CDT MADIS

Show More Stations Show Fewer Stations